Terminal Aerodrome Forecast
Issued by NWS

Home | Current Version | Previous Version | Graphics & Text | Print | Product List | Glossary On
Versions: 1 2 3 4 5 6 7 8 9 10 11 12 13 14 15 16 17 18
230
FTUS43 KMPX 091731
TAFAXN
TAF
KAXN 091731Z 0918/1018 26007KT P6SM -SN OVC019
     FM092100 31007KT P6SM FEW020
     FM101000 33003KT P6SM SCT015 BKN150
     FM101500 VRB03KT P6SM SCT025 OVC080=

USA.gov is the U.S. government's official web portal to all federal, state and local government web resources and services.